Terminal Aerodrome Forecast
Issued by NWS Cleveland, OH

Home | Current Version | Previous Version | Graphics & Text | Print | Product List | Glossary On
Versions: 1 2 3 4 5 6 7 8 9 10 11 12 13 14 15 16 17 18 19 20 21 22 23 24 25 26 27 28 29 30 31 32
000
FTUS41 KCLE 290300 AAA
TAFCLE
TAF AMD
KCLE 290311Z 2903/3006 15003KT P6SM SCT070 BKN200
     FM291000 00000KT 4SM BR SKC
      TEMPO 2911/2913 2SM BR SKC
     FM291330 VRB03KT P6SM SKC
     FM291700 34005KT P6SM FEW040
     FM300100 VRB04KT P6SM SKC=

USA.gov is the U.S. government's official web portal to all federal, state and local government web resources and services.